sensor_id;sensor_type;location;lat;lon;timestamp;temperature;humidity
75838;SHT30;64480;52.040;113.502;2023-08-07T00:02:32;21.35;64.24
75838;SHT30;64480;52.040;113.502;2023-08-07T00:05:36;21.21;63.18
75838;SHT30;64480;52.040;113.502;2023-08-07T00:08:41;21.24;63.33
75838;SHT30;64480;52.040;113.502;2023-08-07T00:11:45;21.27;64.12
75838;SHT30;64480;52.040;113.502;2023-08-07T00:14:50;21.38;64.06
75838;SHT30;64480;52.040;113.502;2023-08-07T00:17:55;21.61;63.82
75838;SHT30;64480;52.040;113.502;2023-08-07T00:21:00;21.80;62.96
75838;SHT30;64480;52.040;113.502;2023-08-07T00:24:04;22.00;61.96
75838;SHT30;64480;52.040;113.502;2023-08-07T00:27:13;22.00;60.95
75838;SHT30;64480;52.040;113.502;2023-08-07T00:30:17;22.16;60.92
75838;SHT30;64480;52.040;113.502;2023-08-07T00:33:22;22.49;59.97
75838;SHT30;64480;52.040;113.502;2023-08-07T00:36:29;22.83;59.39
75838;SHT30;64480;52.040;113.502;2023-08-07T00:39:35;22.85;58.64
75838;SHT30;64480;52.040;113.502;2023-08-07T00:42:39;22.90;58.30
75838;SHT30;64480;52.040;113.502;2023-08-07T00:45:57;22.99;59.26
75838;SHT30;64480;52.040;113.502;2023-08-07T00:49:02;23.10;58.77
75838;SHT30;64480;52.040;113.502;2023-08-07T00:52:07;23.06;58.23
75838;SHT30;64480;52.040;113.502;2023-08-07T00:55:12;23.21;58.96
75838;SHT30;64480;52.040;113.502;2023-08-07T00:58:18;23.10;58.32
75838;SHT30;64480;52.040;113.502;2023-08-07T01:01:22;22.96;59.03
75838;SHT30;64480;52.040;113.502;2023-08-07T01:04:28;22.96;57.75
75838;SHT30;64480;52.040;113.502;2023-08-07T01:07:32;23.03;57.78
75838;SHT30;64480;52.040;113.502;2023-08-07T01:14:28;23.04;58.23
75838;SHT30;64480;52.040;113.502;2023-08-07T01:17:33;23.18;58.32
75838;SHT30;64480;52.040;113.502;2023-08-07T01:20:38;23.27;57.45
75838;SHT30;64480;52.040;113.502;2023-08-07T01:23:42;23.34;56.73
75838;SHT30;64480;52.040;113.502;2023-08-07T01:26:47;23.44;56.01
75838;SHT30;64480;52.040;113.502;2023-08-07T01:30:27;23.55;56.81
75838;SHT30;64480;52.040;113.502;2023-08-07T01:33:54;23.58;54.88
75838;SHT30;64480;52.040;113.502;2023-08-07T01:37:03;23.69;54.74
75838;SHT30;64480;52.040;113.502;2023-08-07T01:40:08;23.76;54.99
75838;SHT30;64480;52.040;113.502;2023-08-07T01:43:16;23.82;54.76
75838;SHT30;64480;52.040;113.502;2023-08-07T01:46:20;23.78;54.55
75838;SHT30;64480;52.040;113.502;2023-08-07T01:49:25;23.93;55.35
75838;SHT30;64480;52.040;113.502;2023-08-07T01:52:28;23.93;54.65
75838;SHT30;64480;52.040;113.502;2023-08-07T01:55:32;24.20;53.77
75838;SHT30;64480;52.040;113.502;2023-08-07T01:58:36;24.44;52.81
75838;SHT30;64480;52.040;113.502;2023-08-07T02:01:40;24.50;53.44
75838;SHT30;64480;52.040;113.502;2023-08-07T02:04:45;24.64;52.35
75838;SHT30;64480;52.040;113.502;2023-08-07T02:07:51;24.79;51.77
75838;SHT30;64480;52.040;113.502;2023-08-07T02:10:55;25.00;50.57
75838;SHT30;64480;52.040;113.502;2023-08-07T02:13:59;25.07;51.63
75838;SHT30;64480;52.040;113.502;2023-08-07T02:17:03;25.38;50.01
75838;SHT30;64480;52.040;113.502;2023-08-07T02:20:08;25.44;48.74
75838;SHT30;64480;52.040;113.502;2023-08-07T02:23:15;25.37;48.83
75838;SHT30;64480;52.040;113.502;2023-08-07T02:26:19;25.30;50.40
75838;SHT30;64480;52.040;113.502;2023-08-07T02:29:24;25.28;49.73
75838;SHT30;64480;52.040;113.502;2023-08-07T02:32:28;25.22;50.28
75838;SHT30;64480;52.040;113.502;2023-08-07T02:35:32;25.02;50.41
75838;SHT30;64480;52.040;113.502;2023-08-07T02:38:36;24.96;50.07
75838;SHT30;64480;52.040;113.502;2023-08-07T02:41:40;24.98;50.60
75838;SHT30;64480;52.040;113.502;2023-08-07T02:44:45;24.88;50.36
75838;SHT30;64480;52.040;113.502;2023-08-07T02:47:48;24.89;50.56
75838;SHT30;64480;52.040;113.502;2023-08-07T02:50:52;25.09;50.91
75838;SHT30;64480;52.040;113.502;2023-08-07T02:53:57;25.20;49.55
75838;SHT30;64480;52.040;113.502;2023-08-07T02:57:01;25.40;49.94
75838;SHT30;64480;52.040;113.502;2023-08-07T03:00:06;25.67;48.65
75838;SHT30;64480;52.040;113.502;2023-08-07T03:03:18;25.93;48.06
75838;SHT30;64480;52.040;113.502;2023-08-07T03:06:23;25.98;48.73
75838;SHT30;64480;52.040;113.502;2023-08-07T03:09:32;25.71;50.41
75838;SHT30;64480;52.040;113.502;2023-08-07T03:12:44;25.38;52.51
75838;SHT30;64480;52.040;113.502;2023-08-07T03:15:49;25.27;53.59
75838;SHT30;64480;52.040;113.502;2023-08-07T03:18:53;25.23;54.77
75838;SHT30;64480;52.040;113.502;2023-08-07T03:22:10;25.15;55.54
75838;SHT30;64480;52.040;113.502;2023-08-07T03:25:18;24.88;55.72
75838;SHT30;64480;52.040;113.502;2023-08-07T03:28:22;24.83;55.55
75838;SHT30;64480;52.040;113.502;2023-08-07T03:31:27;24.92;54.71
75838;SHT30;64480;52.040;113.502;2023-08-07T03:34:32;25.03;53.82
75838;SHT30;64480;52.040;113.502;2023-08-07T03:37:36;25.24;51.89
75838;SHT30;64480;52.040;113.502;2023-08-07T03:40:44;25.47;50.45
75838;SHT30;64480;52.040;113.502;2023-08-07T03:43:48;25.81;48.89
75838;SHT30;64480;52.040;113.502;2023-08-07T03:46:53;26.10;49.08
75838;SHT30;64480;52.040;113.502;2023-08-07T03:50:13;26.34;48.82
75838;SHT30;64480;52.040;113.502;2023-08-07T03:53:18;26.47;45.90
75838;SHT30;64480;52.040;113.502;2023-08-07T03:56:35;26.62;45.67
75838;SHT30;64480;52.040;113.502;2023-08-07T03:59:43;26.77;46.06
75838;SHT30;64480;52.040;113.502;2023-08-07T04:02:47;26.74;46.16
75838;SHT30;64480;52.040;113.502;2023-08-07T04:05:53;27.10;45.03
75838;SHT30;64480;52.040;113.502;2023-08-07T04:08:58;27.27;44.39
75838;SHT30;64480;52.040;113.502;2023-08-07T04:12:09;27.34;44.99
75838;SHT30;64480;52.040;113.502;2023-08-07T04:15:15;27.57;44.00
75838;SHT30;64480;52.040;113.502;2023-08-07T04:18:21;27.61;43.92
75838;SHT30;64480;52.040;113.502;2023-08-07T04:21:30;27.29;43.65
75838;SHT30;64480;52.040;113.502;2023-08-07T04:24:35;27.19;44.52
75838;SHT30;64480;52.040;113.502;2023-08-07T04:27:40;27.27;43.69
75838;SHT30;64480;52.040;113.502;2023-08-07T04:30:49;26.87;43.95
75838;SHT30;64480;52.040;113.502;2023-08-07T04:33:55;26.85;44.29
75838;SHT30;64480;52.040;113.502;2023-08-07T04:37:02;26.99;43.58
75838;SHT30;64480;52.040;113.502;2023-08-07T04:40:10;26.16;45.18
75838;SHT30;64480;52.040;113.502;2023-08-07T04:43:18;25.68;46.51
75838;SHT30;64480;52.040;113.502;2023-08-07T04:46:26;25.31;47.35
75838;SHT30;64480;52.040;113.502;2023-08-07T04:49:31;25.15;47.53
75838;SHT30;64480;52.040;113.502;2023-08-07T04:52:35;24.96;48.40
75838;SHT30;64480;52.040;113.502;2023-08-07T04:55:40;25.16;48.46
75838;SHT30;64480;52.040;113.502;2023-08-07T04:58:44;25.51;47.73
75838;SHT30;64480;52.040;113.502;2023-08-07T05:01:48;25.65;46.47
75838;SHT30;64480;52.040;113.502;2023-08-07T05:04:53;25.67;45.97
75838;SHT30;64480;52.040;113.502;2023-08-07T05:07:59;25.96;45.75
75838;SHT30;64480;52.040;113.502;2023-08-07T05:11:04;26.20;45.65
75838;SHT30;64480;52.040;113.502;2023-08-07T05:14:21;26.68;45.57
75838;SHT30;64480;52.040;113.502;2023-08-07T05:17:25;26.55;45.22
75838;SHT30;64480;52.040;113.502;2023-08-07T05:20:29;26.57;45.03
75838;SHT30;64480;52.040;113.502;2023-08-07T05:23:40;26.48;45.30
75838;SHT30;64480;52.040;113.502;2023-08-07T05:26:45;26.43;45.39
75838;SHT30;64480;52.040;113.502;2023-08-07T05:29:51;26.57;44.73
75838;SHT30;64480;52.040;113.502;2023-08-07T05:32:54;26.33;46.04
75838;SHT30;64480;52.040;113.502;2023-08-07T05:35:59;26.16;47.64
75838;SHT30;64480;52.040;113.502;2023-08-07T05:39:03;25.95;47.51
75838;SHT30;64480;52.040;113.502;2023-08-07T05:42:08;25.72;47.94
75838;SHT30;64480;52.040;113.502;2023-08-07T05:45:13;25.67;48.37
75838;SHT30;64480;52.040;113.502;2023-08-07T05:48:18;25.47;48.99
75838;SHT30;64480;52.040;113.502;2023-08-07T05:51:21;25.71;48.20
75838;SHT30;64480;52.040;113.502;2023-08-07T05:54:26;25.74;47.86
75838;SHT30;64480;52.040;113.502;2023-08-07T05:57:30;25.72;48.26
75838;SHT30;64480;52.040;113.502;2023-08-07T06:00:34;25.57;48.68
75838;SHT30;64480;52.040;113.502;2023-08-07T06:03:38;25.33;49.89
75838;SHT30;64480;52.040;113.502;2023-08-07T06:06:44;24.83;50.14
75838;SHT30;64480;52.040;113.502;2023-08-07T06:09:50;24.21;51.36
75838;SHT30;64480;52.040;113.502;2023-08-07T06:13:07;24.06;52.19
75838;SHT30;64480;52.040;113.502;2023-08-07T06:16:25;23.85;53.22
75838;SHT30;64480;52.040;113.502;2023-08-07T06:19:29;23.72;54.11
75838;SHT30;64480;52.040;113.502;2023-08-07T06:22:46;23.62;55.64
75838;SHT30;64480;52.040;113.502;2023-08-07T06:25:50;23.61;57.91
75838;SHT30;64480;52.040;113.502;2023-08-07T06:29:01;23.28;62.36
75838;SHT30;64480;52.040;113.502;2023-08-07T06:32:05;22.30;70.01
75838;SHT30;64480;52.040;113.502;2023-08-07T06:35:10;21.99;66.82
75838;SHT30;64480;52.040;113.502;2023-08-07T06:38:27;21.62;66.39
75838;SHT30;64480;52.040;113.502;2023-08-07T06:41:33;21.32;69.62
75838;SHT30;64480;52.040;113.502;2023-08-07T06:44:44;21.41;66.59
75838;SHT30;64480;52.040;113.502;2023-08-07T06:47:55;21.55;65.80
75838;SHT30;64480;52.040;113.502;2023-08-07T06:51:01;21.88;69.83
75838;SHT30;64480;52.040;113.502;2023-08-07T06:54:09;22.10;66.41
75838;SHT30;64480;52.040;113.502;2023-08-07T06:57:18;22.37;67.00
75838;SHT30;64480;52.040;113.502;2023-08-07T07:00:24;22.56;66.83
75838;SHT30;64480;52.040;113.502;2023-08-07T07:03:29;22.71;64.28
75838;SHT30;64480;52.040;113.502;2023-08-07T07:06:33;22.93;63.90
75838;SHT30;64480;52.040;113.502;2023-08-07T07:09:36;23.03;60.61
75838;SHT30;64480;52.040;113.502;2023-08-07T07:12:39;23.04;60.02
75838;SHT30;64480;52.040;113.502;2023-08-07T07:15:43;23.26;60.81
75838;SHT30;64480;52.040;113.502;2023-08-07T07:18:49;23.40;62.08
75838;SHT30;64480;52.040;113.502;2023-08-07T07:21:53;23.44;61.41
75838;SHT30;64480;52.040;113.502;2023-08-07T07:24:58;23.48;58.72
75838;SHT30;64480;52.040;113.502;2023-08-07T07:28:03;23.57;58.90
75838;SHT30;64480;52.040;113.502;2023-08-07T07:31:06;23.57;55.25
75838;SHT30;64480;52.040;113.502;2023-08-07T07:34:15;23.55;55.03
75838;SHT30;64480;52.040;113.502;2023-08-07T07:37:18;23.73;54.87
75838;SHT30;64480;52.040;113.502;2023-08-07T07:40:22;23.90;55.95
75838;SHT30;64480;52.040;113.502;2023-08-07T07:43:26;24.24;55.12
75838;SHT30;64480;52.040;113.502;2023-08-07T07:46:33;24.28;54.79
75838;SHT30;64480;52.040;113.502;2023-08-07T07:49:37;24.26;54.74
75838;SHT30;64480;52.040;113.502;2023-08-07T07:52:55;24.13;54.32
75838;SHT30;64480;52.040;113.502;2023-08-07T07:56:13;23.98;55.30
75838;SHT30;64480;52.040;113.502;2023-08-07T07:59:17;24.06;54.89
75838;SHT30;64480;52.040;113.502;2023-08-07T08:02:22;24.13;53.57
75838;SHT30;64480;52.040;113.502;2023-08-07T08:05:27;24.14;54.67
75838;SHT30;64480;52.040;113.502;2023-08-07T08:08:51;24.05;55.13
75838;SHT30;64480;52.040;113.502;2023-08-07T08:11:55;24.14;57.54
75838;SHT30;64480;52.040;113.502;2023-08-07T08:14:59;24.09;54.47
75838;SHT30;64480;52.040;113.502;2023-08-07T08:18:04;24.21;54.77
75838;SHT30;64480;52.040;113.502;2023-08-07T08:21:10;24.21;54.85
75838;SHT30;64480;52.040;113.502;2023-08-07T08:24:16;24.23;54.27
75838;SHT30;64480;52.040;113.502;2023-08-07T08:27:20;24.03;53.94
75838;SHT30;64480;52.040;113.502;2023-08-07T08:30:26;23.93;54.47
75838;SHT30;64480;52.040;113.502;2023-08-07T08:33:31;23.88;54.15
75838;SHT30;64480;52.040;113.502;2023-08-07T08:36:36;23.79;53.38
75838;SHT30;64480;52.040;113.502;2023-08-07T08:39:41;23.71;54.80
75838;SHT30;64480;52.040;113.502;2023-08-07T08:43:00;23.59;55.36
75838;SHT30;64480;52.040;113.502;2023-08-07T08:46:05;23.58;54.26
75838;SHT30;64480;52.040;113.502;2023-08-07T08:49:14;23.57;55.38
75838;SHT30;64480;52.040;113.502;2023-08-07T08:52:42;23.59;56.15
75838;SHT30;64480;52.040;113.502;2023-08-07T08:55:47;23.55;54.55
75838;SHT30;64480;52.040;113.502;2023-08-07T08:58:51;23.44;55.11
75838;SHT30;64480;52.040;113.502;2023-08-07T09:01:55;23.40;54.79
75838;SHT30;64480;52.040;113.502;2023-08-07T09:05:00;23.50;54.77
75838;SHT30;64480;52.040;113.502;2023-08-07T09:08:05;23.54;54.86
75838;SHT30;64480;52.040;113.502;2023-08-07T09:11:13;23.68;54.79
75838;SHT30;64480;52.040;113.502;2023-08-07T09:14:20;23.95;53.55
75838;SHT30;64480;52.040;113.502;2023-08-07T09:17:35;23.98;53.79
75838;SHT30;64480;52.040;113.502;2023-08-07T09:20:42;24.07;53.80
75838;SHT30;64480;52.040;113.502;2023-08-07T09:23:47;24.16;53.45
75838;SHT30;64480;52.040;113.502;2023-08-07T09:26:51;24.24;52.89
75838;SHT30;64480;52.040;113.502;2023-08-07T09:29:58;24.35;52.74
75838;SHT30;64480;52.040;113.502;2023-08-07T09:33:02;24.47;52.87
75838;SHT30;64480;52.040;113.502;2023-08-07T09:36:09;24.47;52.36
75838;SHT30;64480;52.040;113.502;2023-08-07T09:39:13;24.43;53.10
75838;SHT30;64480;52.040;113.502;2023-08-07T09:42:18;24.21;52.08
75838;SHT30;64480;52.040;113.502;2023-08-07T09:45:25;24.09;52.50
75838;SHT30;64480;52.040;113.502;2023-08-07T09:48:30;23.88;52.30
75838;SHT30;64480;52.040;113.502;2023-08-07T09:51:46;23.99;51.96
75838;SHT30;64480;52.040;113.502;2023-08-07T09:54:50;24.07;51.97
75838;SHT30;64480;52.040;113.502;2023-08-07T09:58:07;24.12;52.29
75838;SHT30;64480;52.040;113.502;2023-08-07T10:01:12;24.23;51.97
75838;SHT30;64480;52.040;113.502;2023-08-07T10:04:29;24.06;51.95
75838;SHT30;64480;52.040;113.502;2023-08-07T10:07:37;24.17;51.71
75838;SHT30;64480;52.040;113.502;2023-08-07T10:10:43;24.12;51.85
75838;SHT30;64480;52.040;113.502;2023-08-07T10:13:48;23.86;52.54
75838;SHT30;64480;52.040;113.502;2023-08-07T10:16:52;23.90;52.92
75838;SHT30;64480;52.040;113.502;2023-08-07T10:20:00;23.59;52.64
75838;SHT30;64480;52.040;113.502;2023-08-07T10:23:08;23.27;53.56
75838;SHT30;64480;52.040;113.502;2023-08-07T10:26:15;23.02;54.77
75838;SHT30;64480;52.040;113.502;2023-08-07T10:29:20;22.86;55.09
75838;SHT30;64480;52.040;113.502;2023-08-07T10:32:28;22.71;54.87
75838;SHT30;64480;52.040;113.502;2023-08-07T10:35:33;22.56;55.16
75838;SHT30;64480;52.040;113.502;2023-08-07T10:38:41;22.43;55.60
75838;SHT30;64480;52.040;113.502;2023-08-07T10:42:01;22.34;55.10
75838;SHT30;64480;52.040;113.502;2023-08-07T10:45:08;22.27;55.76
75838;SHT30;64480;52.040;113.502;2023-08-07T10:48:17;22.27;55.03
75838;SHT30;64480;52.040;113.502;2023-08-07T10:51:30;22.34;54.86
75838;SHT30;64480;52.040;113.502;2023-08-07T10:54:39;22.38;54.83
75838;SHT30;64480;52.040;113.502;2023-08-07T10:57:51;22.25;55.32
75838;SHT30;64480;52.040;113.502;2023-08-07T11:04:25;22.04;56.34
75838;SHT30;64480;52.040;113.502;2023-08-07T11:07:30;21.94;56.49
75838;SHT30;64480;52.040;113.502;2023-08-07T11:10:34;21.85;56.48
75838;SHT30;64480;52.040;113.502;2023-08-07T11:13:37;21.72;57.11
75838;SHT30;64480;52.040;113.502;2023-08-07T11:16:43;21.63;57.55
75838;SHT30;64480;52.040;113.502;2023-08-07T11:19:47;21.56;58.00
75838;SHT30;64480;52.040;113.502;2023-08-07T11:22:51;21.58;58.72
75838;SHT30;64480;52.040;113.502;2023-08-07T11:25:55;21.51;58.23
75838;SHT30;64480;52.040;113.502;2023-08-07T11:29:00;21.44;58.98
75838;SHT30;64480;52.040;113.502;2023-08-07T11:32:05;21.35;59.07
75838;SHT30;64480;52.040;113.502;2023-08-07T11:35:13;21.31;59.74
75838;SHT30;64480;52.040;113.502;2023-08-07T11:38:31;21.28;59.75
75838;SHT30;64480;52.040;113.502;2023-08-07T11:41:36;21.20;59.66
75838;SHT30;64480;52.040;113.502;2023-08-07T11:44:41;21.10;60.16
75838;SHT30;64480;52.040;113.502;2023-08-07T11:47:46;20.97;58.95
75838;SHT30;64480;52.040;113.502;2023-08-07T11:50:52;20.91;59.51
75838;SHT30;64480;52.040;113.502;2023-08-07T11:53:56;20.87;60.23
75838;SHT30;64480;52.040;113.502;2023-08-07T11:57:03;20.84;60.83
75838;SHT30;64480;52.040;113.502;2023-08-07T12:00:18;20.79;60.96
75838;SHT30;64480;52.040;113.502;2023-08-07T12:03:29;20.69;61.20
75838;SHT30;64480;52.040;113.502;2023-08-07T12:06:34;20.66;61.38
75838;SHT30;64480;52.040;113.502;2023-08-07T12:09:50;20.62;61.43
75838;SHT30;64480;52.040;113.502;2023-08-07T12:12:59;20.59;61.13
75838;SHT30;64480;52.040;113.502;2023-08-07T12:16:09;20.68;61.40
75838;SHT30;64480;52.040;113.502;2023-08-07T12:19:13;20.68;61.81
75838;SHT30;64480;52.040;113.502;2023-08-07T12:22:19;20.68;61.99
75838;SHT30;64480;52.040;113.502;2023-08-07T12:25:28;20.71;61.05
75838;SHT30;64480;52.040;113.502;2023-08-07T12:28:36;20.77;60.94
75838;SHT30;64480;52.040;113.502;2023-08-07T12:31:41;20.79;61.47
75838;SHT30;64480;52.040;113.502;2023-08-07T12:34:46;20.71;61.97
75838;SHT30;64480;52.040;113.502;2023-08-07T12:37:56;20.71;62.81
75838;SHT30;64480;52.040;113.502;2023-08-07T12:41:01;20.66;61.97
75838;SHT30;64480;52.040;113.502;2023-08-07T12:44:30;20.66;62.35
75838;SHT30;64480;52.040;113.502;2023-08-07T12:47:33;20.59;62.60
75838;SHT30;64480;52.040;113.502;2023-08-07T12:50:38;20.59;62.67
75838;SHT30;64480;52.040;113.502;2023-08-07T12:53:43;20.51;63.10
75838;SHT30;64480;52.040;113.502;2023-08-07T12:56:57;20.46;62.71
75838;SHT30;64480;52.040;113.502;2023-08-07T13:00:01;20.51;62.71
75838;SHT30;64480;52.040;113.502;2023-08-07T13:03:07;20.51;61.84
75838;SHT30;64480;52.040;113.502;2023-08-07T13:06:12;20.46;63.41
75838;SHT30;64480;52.040;113.502;2023-08-07T13:09:16;20.45;64.45
75838;SHT30;64480;52.040;113.502;2023-08-07T13:12:24;20.42;64.46
75838;SHT30;64480;52.040;113.502;2023-08-07T13:15:29;20.31;64.57
75838;SHT30;64480;52.040;113.502;2023-08-07T13:18:34;20.25;64.98
75838;SHT30;64480;52.040;113.502;2023-08-07T13:21:37;20.22;64.57
75838;SHT30;64480;52.040;113.502;2023-08-07T13:24:41;20.22;65.26
75838;SHT30;64480;52.040;113.502;2023-08-07T13:27:45;20.24;65.70
75838;SHT30;64480;52.040;113.502;2023-08-07T13:30:50;20.20;65.50
75838;SHT30;64480;52.040;113.502;2023-08-07T13:33:55;20.22;65.48
75838;SHT30;64480;52.040;113.502;2023-08-07T13:37:06;20.25;65.23
75838;SHT30;64480;52.040;113.502;2023-08-07T13:40:11;20.25;65.23
75838;SHT30;64480;52.040;113.502;2023-08-07T13:43:16;20.24;64.36
75838;SHT30;64480;52.040;113.502;2023-08-07T13:46:21;20.20;64.51
75838;SHT30;64480;52.040;113.502;2023-08-07T13:49:28;20.22;64.48
75838;SHT30;64480;52.040;113.502;2023-08-07T13:52:34;20.18;65.01
75838;SHT30;64480;52.040;113.502;2023-08-07T13:55:39;20.20;64.76
75838;SHT30;64480;52.040;113.502;2023-08-07T13:58:44;20.18;64.60
75838;SHT30;64480;52.040;113.502;2023-08-07T14:01:49;20.21;64.58
75838;SHT30;64480;52.040;113.502;2023-08-07T14:04:56;20.27;64.56
75838;SHT30;64480;52.040;113.502;2023-08-07T14:08:14;20.20;62.02
75838;SHT30;64480;52.040;113.502;2023-08-07T14:11:22;20.16;60.38
75838;SHT30;64480;52.040;113.502;2023-08-07T14:14:31;20.14;60.32
75838;SHT30;64480;52.040;113.502;2023-08-07T14:17:36;20.10;60.74
75838;SHT30;64480;52.040;113.502;2023-08-07T14:20:41;20.09;60.59
75838;SHT30;64480;52.040;113.502;2023-08-07T14:24:05;20.01;60.82
75838;SHT30;64480;52.040;113.502;2023-08-07T14:27:10;20.07;61.26
75838;SHT30;64480;52.040;113.502;2023-08-07T14:30:16;20.06;61.08
75838;SHT30;64480;52.040;113.502;2023-08-07T14:33:21;19.97;61.53
75838;SHT30;64480;52.040;113.502;2023-08-07T14:36:28;19.90;62.17
75838;SHT30;64480;52.040;113.502;2023-08-07T14:39:33;19.93;62.13
75838;SHT30;64480;52.040;113.502;2023-08-07T14:42:39;19.90;62.35
75838;SHT30;64480;52.040;113.502;2023-08-07T14:45:50;19.90;62.60
75838;SHT30;64480;52.040;113.502;2023-08-07T14:48:55;19.82;63.06
75838;SHT30;64480;52.040;113.502;2023-08-07T14:52:01;19.67;62.96
75838;SHT30;64480;52.040;113.502;2023-08-07T14:55:05;19.61;63.29
75838;SHT30;64480;52.040;113.502;2023-08-07T14:58:09;19.58;63.68
75838;SHT30;64480;52.040;113.502;2023-08-07T15:01:13;19.44;64.11
75838;SHT30;64480;52.040;113.502;2023-08-07T15:04:17;19.44;64.31
75838;SHT30;64480;52.040;113.502;2023-08-07T15:07:21;19.44;64.07
75838;SHT30;64480;52.040;113.502;2023-08-07T15:10:28;19.46;63.71
75838;SHT30;64480;52.040;113.502;2023-08-07T15:13:33;19.48;63.77
75838;SHT30;64480;52.040;113.502;2023-08-07T15:16:37;19.48;63.35
75838;SHT30;64480;52.040;113.502;2023-08-07T15:19:41;19.49;63.86
75838;SHT30;64480;52.040;113.502;2023-08-07T15:22:44;19.49;63.82
75838;SHT30;64480;52.040;113.502;2023-08-07T15:25:50;19.48;64.60
75838;SHT30;64480;52.040;113.502;2023-08-07T15:28:54;19.36;65.29
75838;SHT30;64480;52.040;113.502;2023-08-07T15:31:59;19.28;66.51
75838;SHT30;64480;52.040;113.502;2023-08-07T15:35:03;19.14;67.56
75838;SHT30;64480;52.040;113.502;2023-08-07T15:38:08;19.04;68.56
75838;SHT30;64480;52.040;113.502;2023-08-07T15:41:13;18.97;69.09
75838;SHT30;64480;52.040;113.502;2023-08-07T15:44:17;18.87;69.73
75838;SHT30;64480;52.040;113.502;2023-08-07T15:47:22;18.77;70.17
75838;SHT30;64480;52.040;113.502;2023-08-07T15:50:26;18.67;70.84
75838;SHT30;64480;52.040;113.502;2023-08-07T15:53:55;18.53;70.95
75838;SHT30;64480;52.040;113.502;2023-08-07T15:57:00;18.44;70.90
75838;SHT30;64480;52.040;113.502;2023-08-07T16:00:12;18.39;71.21
75838;SHT30;64480;52.040;113.502;2023-08-07T16:03:17;18.29;71.57
75838;SHT30;64480;52.040;113.502;2023-08-07T16:10:57;18.17;71.96
75838;SHT30;64480;52.040;113.502;2023-08-07T16:14:02;18.11;71.92
75838;SHT30;64480;52.040;113.502;2023-08-07T16:17:47;18.05;72.24
75838;SHT30;64480;52.040;113.502;2023-08-07T16:21:15;18.01;72.46
75838;SHT30;64480;52.040;113.502;2023-08-07T16:28:12;17.87;72.65
75838;SHT30;64480;52.040;113.502;2023-08-07T16:31:20;17.80;72.86
75838;SHT30;64480;52.040;113.502;2023-08-07T16:34:23;17.72;72.89
75838;SHT30;64480;52.040;113.502;2023-08-07T16:37:28;17.73;73.14
75838;SHT30;64480;52.040;113.502;2023-08-07T16:40:34;17.65;73.39
75838;SHT30;64480;52.040;113.502;2023-08-07T16:43:38;17.59;72.98
75838;SHT30;64480;52.040;113.502;2023-08-07T16:46:43;17.50;73.09
75838;SHT30;64480;52.040;113.502;2023-08-07T16:49:47;17.39;73.09
75838;SHT30;64480;52.040;113.502;2023-08-07T16:53:00;17.31;73.17
75838;SHT30;64480;52.040;113.502;2023-08-07T16:56:04;17.28;73.84
75838;SHT30;64480;52.040;113.502;2023-08-07T16:59:09;17.21;73.87
75838;SHT30;64480;52.040;113.502;2023-08-07T17:02:13;17.17;74.06
75838;SHT30;64480;52.040;113.502;2023-08-07T17:05:21;17.15;74.50
75838;SHT30;64480;52.040;113.502;2023-08-07T17:08:25;17.08;74.84
75838;SHT30;64480;52.040;113.502;2023-08-07T17:11:30;17.01;75.42
75838;SHT30;64480;52.040;113.502;2023-08-07T17:14:33;16.94;75.62
75838;SHT30;64480;52.040;113.502;2023-08-07T17:17:37;16.94;75.50
75838;SHT30;64480;52.040;113.502;2023-08-07T17:20:42;16.99;75.43
75838;SHT30;64480;52.040;113.502;2023-08-07T17:23:45;17.00;75.45
75838;SHT30;64480;52.040;113.502;2023-08-07T17:26:49;16.91;75.55
75838;SHT30;64480;52.040;113.502;2023-08-07T17:29:52;16.81;75.91
75838;SHT30;64480;52.040;113.502;2023-08-07T17:32:57;16.83;75.92
75838;SHT30;64480;52.040;113.502;2023-08-07T17:36:01;16.79;76.15
75838;SHT30;64480;52.040;113.502;2023-08-07T17:39:04;16.74;76.42
75838;SHT30;64480;52.040;113.502;2023-08-07T17:42:08;16.69;76.58
75838;SHT30;64480;52.040;113.502;2023-08-07T17:45:13;16.62;76.84
75838;SHT30;64480;52.040;113.502;2023-08-07T17:48:18;16.62;76.86
75838;SHT30;64480;52.040;113.502;2023-08-07T17:51:21;16.57;76.89
75838;SHT30;64480;52.040;113.502;2023-08-07T17:54:25;16.49;77.04
75838;SHT30;64480;52.040;113.502;2023-08-07T17:57:29;16.42;77.60
75838;SHT30;64480;52.040;113.502;2023-08-07T18:00:33;16.41;77.53
75838;SHT30;64480;52.040;113.502;2023-08-07T18:03:37;16.35;77.08
75838;SHT30;64480;52.040;113.502;2023-08-07T18:06:41;16.28;77.30
75838;SHT30;64480;52.040;113.502;2023-08-07T18:09:46;16.17;77.50
75838;SHT30;64480;52.040;113.502;2023-08-07T18:12:51;16.17;77.49
75838;SHT30;64480;52.040;113.502;2023-08-07T18:15:54;16.12;77.28
75838;SHT30;64480;52.040;113.502;2023-08-07T18:18:58;16.05;77.55
75838;SHT30;64480;52.040;113.502;2023-08-07T18:22:02;15.96;77.76
75838;SHT30;64480;52.040;113.502;2023-08-07T18:25:08;15.89;77.90
75838;SHT30;64480;52.040;113.502;2023-08-07T18:28:12;15.87;78.26
75838;SHT30;64480;52.040;113.502;2023-08-07T18:31:16;15.83;78.42
75838;SHT30;64480;52.040;113.502;2023-08-07T18:34:20;15.80;78.68
75838;SHT30;64480;52.040;113.502;2023-08-07T18:37:24;15.77;78.61
75838;SHT30;64480;52.040;113.502;2023-08-07T18:40:27;15.73;78.30
75838;SHT30;64480;52.040;113.502;2023-08-07T18:43:32;15.71;78.44
75838;SHT30;64480;52.040;113.502;2023-08-07T18:46:36;15.73;78.38
75838;SHT30;64480;52.040;113.502;2023-08-07T18:49:39;15.69;78.45
75838;SHT30;64480;52.040;113.502;2023-08-07T18:52:43;15.63;78.63
75838;SHT30;64480;52.040;113.502;2023-08-07T18:55:48;15.55;78.88
75838;SHT30;64480;52.040;113.502;2023-08-07T18:58:51;15.55;78.99
75838;SHT30;64480;52.040;113.502;2023-08-07T19:01:55;15.53;78.81
75838;SHT30;64480;52.040;113.502;2023-08-07T19:05:07;15.56;78.56
75838;SHT30;64480;52.040;113.502;2023-08-07T19:08:11;15.52;78.65
75838;SHT30;64480;52.040;113.502;2023-08-07T19:11:15;15.46;78.74
75838;SHT30;64480;52.040;113.502;2023-08-07T19:14:21;15.42;78.40
75838;SHT30;64480;52.040;113.502;2023-08-07T19:17:24;15.39;78.50
75838;SHT30;64480;52.040;113.502;2023-08-07T19:20:29;15.36;78.61